createdAt,value
2023-02-04T00:00:15.723Z,21.75
2023-02-04T00:02:42.159Z,12.25
2023-02-04T00:05:10.992Z,22.23
2023-02-04T00:07:38.458Z,15.13
2023-02-04T00:10:06.629Z,14.48
2023-02-04T00:12:34.420Z,16.48
2023-02-04T00:15:01.079Z,19.77
2023-02-04T00:17:27.725Z,23.88
2023-02-04T00:19:54.267Z,16.35
2023-02-04T00:22:21.122Z,20.55
2023-02-04T00:24:49.903Z,20.00
2023-02-04T00:27:16.762Z,16.73
2023-02-04T00:29:43.112Z,24.73
2023-02-04T00:32:10.036Z,17.83
2023-02-04T00:34:36.557Z,18.15
2023-02-04T00:37:03.378Z,12.68
2023-02-04T00:39:29.961Z,10.45
2023-02-04T00:41:56.437Z,17.00
2023-02-04T00:44:22.895Z,24.20
2023-02-04T00:46:49.463Z,13.18
2023-02-04T00:49:15.847Z,13.00
2023-02-04T00:51:46.405Z,17.80
2023-02-04T00:54:14.564Z,18.05
2023-02-04T00:56:42.049Z,24.92
2023-02-04T00:59:08.676Z,14.30
2023-02-04T01:01:35.381Z,23.02
2023-02-04T01:04:01.919Z,22.25
2023-02-04T01:06:28.323Z,17.88
2023-02-04T01:08:54.849Z,25.30
2023-02-04T01:11:21.492Z,21.17
2023-02-04T01:13:47.933Z,27.63
2023-02-04T01:16:14.885Z,21.00
2023-02-04T01:18:41.547Z,23.45
2023-02-04T01:21:08.000Z,16.80
2023-02-04T01:23:34.566Z,20.25
2023-02-04T01:26:00.988Z,9.10
2023-02-04T01:28:27.869Z,20.48
2023-02-04T01:30:54.611Z,20.83
2023-02-04T01:33:21.670Z,28.40
2023-02-04T01:35:48.412Z,22.77
2023-02-04T01:38:14.831Z,20.80
2023-02-04T01:40:42.749Z,27.25
2023-02-04T01:43:10.186Z,25.73
2023-02-04T01:45:38.586Z,22.30
2023-02-04T01:48:07.487Z,20.58
2023-02-04T01:50:34.584Z,20.45
2023-02-04T01:53:01.544Z,23.65
2023-02-04T01:55:31.366Z,19.30
2023-02-04T01:57:58.945Z,24.77
2023-02-04T02:00:27.999Z,17.20
2023-02-04T02:02:54.972Z,20.65
2023-02-04T02:05:24.669Z,32.97
2023-02-04T02:07:53.961Z,32.10
2023-02-04T02:10:24.374Z,27.45
2023-02-04T02:12:51.302Z,20.90
2023-02-04T02:15:18.984Z,18.63
2023-02-04T02:17:45.740Z,22.58
2023-02-04T02:20:15.841Z,12.60
2023-02-04T02:22:54.442Z,13.52
2023-02-04T02:25:21.306Z,14.20
2023-02-04T02:27:47.988Z,24.80
2023-02-04T02:30:17.605Z,14.18
2023-02-04T02:32:46.307Z,21.15
2023-02-04T02:35:13.652Z,27.70
2023-02-04T02:37:40.199Z,20.75
2023-02-04T02:40:07.327Z,21.77
2023-02-04T02:42:33.934Z,24.50
2023-02-04T02:45:03.295Z,18.90
2023-02-04T02:47:30.123Z,38.90
2023-02-04T02:49:56.934Z,16.83
2023-02-04T02:52:23.311Z,16.92
2023-02-04T02:54:50.187Z,22.13
2023-02-04T02:57:21.048Z,22.42
2023-02-04T02:59:48.293Z,24.40
2023-02-04T03:02:21.920Z,21.55
2023-02-04T03:04:54.649Z,23.95
2023-02-04T03:07:22.596Z,17.10
2023-02-04T03:09:49.380Z,15.68
2023-02-04T03:12:15.981Z,19.42
2023-02-04T03:14:42.578Z,22.70
2023-02-04T03:17:10.599Z,14.55
2023-02-04T03:19:37.972Z,25.30
2023-02-04T03:22:05.561Z,16.13
2023-02-04T03:24:33.683Z,27.88
2023-02-04T03:27:00.972Z,23.00
2023-02-04T03:29:29.639Z,29.38
2023-02-04T03:31:56.841Z,18.50
2023-02-04T03:34:23.351Z,14.82
2023-02-04T03:36:49.830Z,27.52
2023-02-04T03:39:16.380Z,29.38
2023-02-04T03:41:43.023Z,13.20
2023-02-04T03:44:09.427Z,22.30
2023-02-04T03:46:36.076Z,15.93
2023-02-04T03:49:02.536Z,20.27
2023-02-04T03:51:29.171Z,24.25
2023-02-04T03:53:55.543Z,31.98
2023-02-04T03:56:22.038Z,25.80
2023-02-04T03:58:48.586Z,29.27
2023-02-04T04:01:15.123Z,15.90
2023-02-04T04:03:41.546Z,29.63
2023-02-04T04:06:09.924Z,12.93
2023-02-04T04:08:37.909Z,20.23
2023-02-04T04:11:04.350Z,20.48
2023-02-04T04:13:30.788Z,24.60
2023-02-04T04:15:57.490Z,17.40
2023-02-04T04:18:24.008Z,23.30
2023-02-04T04:20:50.381Z,23.50
2023-02-04T04:23:16.871Z,17.75
2023-02-04T04:25:43.291Z,23.52
2023-02-04T04:28:09.717Z,23.30
2023-02-04T04:30:36.256Z,18.42
2023-02-04T04:33:02.685Z,14.98
2023-02-04T04:35:29.056Z,17.33
2023-02-04T04:37:55.648Z,18.40
2023-02-04T04:40:22.064Z,24.80
2023-02-04T04:42:48.568Z,19.02
2023-02-04T04:45:14.970Z,20.10
2023-02-04T04:47:41.346Z,15.95
2023-02-04T04:50:08.527Z,18.50
2023-02-04T04:52:34.977Z,24.17
2023-02-04T04:55:01.645Z,17.75
2023-02-04T04:57:28.114Z,17.23
2023-02-04T04:59:54.818Z,20.58
2023-02-04T05:02:21.406Z,19.40
2023-02-04T05:04:47.876Z,21.05
2023-02-04T05:07:14.481Z,19.52
2023-02-04T05:09:41.250Z,24.65
2023-02-04T05:12:07.801Z,19.30
2023-02-04T05:14:34.478Z,17.73
2023-02-04T05:17:01.096Z,13.80
2023-02-04T05:19:27.501Z,15.48
2023-02-04T05:21:54.087Z,24.05
2023-02-04T05:24:20.749Z,20.38
2023-02-04T05:26:47.306Z,17.48
2023-02-04T05:29:13.726Z,14.68
2023-02-04T05:31:40.661Z,16.02
2023-02-04T05:34:07.122Z,20.85
2023-02-04T05:36:33.698Z,16.45
2023-02-04T05:39:00.138Z,21.80
2023-02-04T05:41:26.720Z,18.45
2023-02-04T05:43:53.133Z,23.23
2023-02-04T05:46:19.658Z,24.40
2023-02-04T05:48:46.065Z,28.38
2023-02-04T05:51:12.618Z,18.27
2023-02-04T05:53:39.054Z,23.55
2023-02-04T05:56:05.713Z,25.55
2023-02-04T05:58:33.615Z,29.60
2023-02-04T06:01:01.728Z,25.75
2023-02-04T06:03:29.464Z,17.67
2023-02-04T06:05:56.897Z,15.70
2023-02-04T06:08:24.129Z,19.38
2023-02-04T06:10:50.700Z,23.05
2023-02-04T06:13:17.092Z,18.60
2023-02-04T06:15:43.618Z,28.67
2023-02-04T06:18:10.330Z,19.95
2023-02-04T06:20:36.857Z,18.05
2023-02-04T06:23:03.283Z,17.83
2023-02-04T06:25:29.843Z,19.33
2023-02-04T06:27:56.309Z,23.40
2023-02-04T06:30:22.778Z,17.58
2023-02-04T06:32:49.156Z,27.90
2023-02-04T06:35:16.572Z,24.50
2023-02-04T06:37:43.393Z,24.80
2023-02-04T06:40:11.227Z,30.33
2023-02-04T06:42:37.668Z,24.17
2023-02-04T06:45:04.762Z,26.27
2023-02-04T06:47:31.276Z,23.00
2023-02-04T06:49:57.795Z,26.98
2023-02-04T06:52:24.203Z,24.45
2023-02-04T06:54:50.735Z,28.08
2023-02-04T06:57:17.136Z,27.95
2023-02-04T06:59:43.693Z,20.20
2023-02-04T07:02:11.425Z,17.05
2023-02-04T07:04:37.884Z,23.77
2023-02-04T07:07:07.056Z,22.90
2023-02-04T07:09:33.642Z,24.83
2023-02-04T07:12:00.077Z,24.40
2023-02-04T07:14:26.688Z,21.33
2023-02-04T07:16:53.184Z,21.35
2023-02-04T07:19:21.181Z,21.23
2023-02-04T07:21:48.047Z,25.75
2023-02-04T07:24:14.532Z,24.58
2023-02-04T07:26:40.954Z,21.48
2023-02-04T07:29:14.457Z,26.27
2023-02-04T07:31:41.828Z,25.42
2023-02-04T07:34:08.361Z,28.55
2023-02-04T07:36:34.806Z,18.13
2023-02-04T07:39:01.445Z,21.38
2023-02-04T07:41:27.913Z,24.48
2023-02-04T07:43:54.475Z,25.75
2023-02-04T07:46:20.991Z,30.08
2023-02-04T07:48:47.609Z,30.02
2023-02-04T07:51:13.996Z,28.30
2023-02-04T07:53:40.611Z,35.10
2023-02-04T07:56:07.437Z,23.88
2023-02-04T07:58:33.964Z,21.55
2023-02-04T08:01:01.297Z,32.63
2023-02-04T08:03:28.106Z,39.03
2023-02-04T08:05:54.842Z,27.90
2023-02-04T08:08:21.555Z,27.67
2023-02-04T08:10:48.073Z,29.48
2023-02-04T08:13:14.745Z,30.67
2023-02-04T08:15:41.513Z,30.83
2023-02-04T08:18:07.972Z,30.13
2023-02-04T08:20:34.730Z,30.80
2023-02-04T08:23:01.406Z,25.90
2023-02-04T08:25:28.963Z,35.88
2023-02-04T08:27:55.532Z,34.20
2023-02-04T08:30:22.158Z,40.17
2023-02-04T08:32:48.538Z,40.47
2023-02-04T08:35:15.187Z,49.88
2023-02-04T08:37:41.861Z,44.65
2023-02-04T08:40:08.952Z,25.60
2023-02-04T08:42:35.469Z,32.30
2023-02-04T08:45:03.901Z,30.02
2023-02-04T08:47:30.274Z,36.53
2023-02-04T08:49:56.817Z,35.25
2023-02-04T08:52:23.760Z,39.42
2023-02-04T08:54:50.265Z,40.60
2023-02-04T08:57:16.703Z,36.95
2023-02-04T08:59:45.968Z,33.95
2023-02-04T09:02:12.619Z,31.92
2023-02-04T09:04:39.032Z,33.17
2023-02-04T09:07:05.732Z,37.40
2023-02-04T09:09:32.112Z,37.25
2023-02-04T09:11:58.706Z,38.55
2023-02-04T09:14:25.134Z,27.27
2023-02-04T09:16:51.582Z,30.13
2023-02-04T09:19:23.854Z,33.22
2023-02-04T09:21:50.339Z,34.05
2023-02-04T09:24:16.782Z,32.40
2023-02-04T09:26:43.195Z,36.17
2023-02-04T09:29:09.704Z,37.15
2023-02-04T09:31:36.147Z,38.60
2023-02-04T09:34:02.664Z,46.03
2023-02-04T09:36:30.584Z,37.22
2023-02-04T09:38:56.999Z,36.80
2023-02-04T09:41:23.592Z,33.28
2023-02-04T09:43:50.628Z,27.55
2023-02-04T09:46:24.395Z,32.00
2023-02-04T09:48:51.513Z,37.20
2023-02-04T09:51:21.995Z,37.95
2023-02-04T09:53:49.621Z,32.92
2023-02-04T09:56:17.136Z,36.33
2023-02-04T09:58:44.036Z,28.58
2023-02-04T10:01:19.250Z,42.65
2023-02-04T10:03:48.366Z,33.33
2023-02-04T10:06:17.840Z,30.92
2023-02-04T10:08:46.185Z,29.45
2023-02-04T10:11:14.537Z,28.13
2023-02-04T10:13:48.556Z,31.45
2023-02-04T10:16:18.967Z,40.22
2023-02-04T10:18:45.756Z,26.15
2023-02-04T10:21:18.307Z,32.22
2023-02-04T10:23:48.968Z,36.28
2023-02-04T10:26:16.705Z,39.38
2023-02-04T10:28:44.097Z,27.02
2023-02-04T10:31:31.045Z,34.28
2023-02-04T10:34:04.971Z,23.15
2023-02-04T10:36:31.609Z,25.38
2023-02-04T10:39:03.891Z,23.38
2023-02-04T10:41:30.406Z,21.13
2023-02-04T10:44:10.395Z,25.35
2023-02-04T10:46:38.033Z,17.52
2023-02-04T10:49:05.731Z,36.25
2023-02-04T10:51:33.137Z,28.05
2023-02-04T10:54:18.825Z,21.80
2023-02-04T10:56:45.575Z,22.20
2023-02-04T10:59:26.930Z,27.73
2023-02-04T11:01:56.691Z,28.52
2023-02-04T11:04:24.182Z,28.45
2023-02-04T11:06:52.659Z,31.10
2023-02-04T11:09:19.725Z,32.65
2023-02-04T11:11:48.427Z,30.35
2023-02-04T11:14:28.213Z,22.70
2023-02-04T11:17:00.260Z,28.73
2023-02-04T11:19:37.149Z,28.65
2023-02-04T11:22:24.039Z,29.73
2023-02-04T11:24:51.968Z,29.83
2023-02-04T11:27:37.153Z,20.67
2023-02-04T11:30:23.233Z,25.27
2023-02-04T11:33:02.096Z,32.25
2023-02-04T11:35:30.239Z,21.48
2023-02-04T11:37:58.595Z,17.67
2023-02-04T11:40:26.972Z,29.33
2023-02-04T11:43:02.560Z,23.85
2023-02-04T11:45:31.224Z,19.35
2023-02-04T11:48:02.153Z,23.20
2023-02-04T11:50:32.343Z,33.38
2023-02-04T11:53:01.724Z,22.45
2023-02-04T11:55:30.863Z,26.23
2023-02-04T11:57:58.190Z,31.58
2023-02-04T12:00:30.315Z,21.55
2023-02-04T12:03:06.358Z,33.55
2023-02-04T12:05:54.759Z,23.70
2023-02-04T12:08:24.071Z,22.40
2023-02-04T12:11:02.817Z,30.13
2023-02-04T12:13:30.955Z,22.88
2023-02-04T12:16:06.020Z,17.20
2023-02-04T12:18:34.680Z,23.63
2023-02-04T12:21:02.663Z,32.75
2023-02-04T12:23:30.148Z,18.92
2023-02-04T12:25:57.246Z,18.98
2023-02-04T12:28:24.131Z,19.27
2023-02-04T12:30:50.773Z,21.50
2023-02-04T12:33:17.599Z,25.83
2023-02-04T12:35:44.029Z,20.30
2023-02-04T12:38:10.707Z,14.70
2023-02-04T12:40:37.950Z,15.30
2023-02-04T12:43:04.553Z,19.73
2023-02-04T12:45:31.552Z,19.90
2023-02-04T12:47:58.470Z,21.83
2023-02-04T12:50:26.033Z,27.13
2023-02-04T12:52:54.314Z,16.30
2023-02-04T12:55:22.399Z,14.07
2023-02-04T12:57:49.503Z,22.67
2023-02-04T13:00:18.041Z,18.52
2023-02-04T13:02:44.833Z,26.33
2023-02-04T13:05:12.468Z,23.45
2023-02-04T13:07:40.670Z,18.45
2023-02-04T13:10:09.343Z,19.08
2023-02-04T13:12:35.880Z,17.30
2023-02-04T13:15:02.410Z,14.95
2023-02-04T13:17:29.159Z,12.82
2023-02-04T13:19:55.524Z,20.95
2023-02-04T13:22:22.049Z,21.20
2023-02-04T13:24:48.560Z,11.90
2023-02-04T13:27:15.335Z,21.42
2023-02-04T13:29:42.233Z,19.48
2023-02-04T13:32:09.493Z,20.08
2023-02-04T13:34:36.250Z,26.08
2023-02-04T13:37:02.676Z,27.05
2023-02-04T13:39:30.005Z,29.77
2023-02-04T13:41:56.392Z,19.45
2023-02-04T13:44:22.940Z,19.60
2023-02-04T13:46:49.593Z,14.48
2023-02-04T13:49:16.032Z,15.35
2023-02-04T13:51:42.542Z,20.00
2023-02-04T13:54:09.119Z,21.33
2023-02-04T13:56:36.500Z,21.73
2023-02-04T13:59:04.266Z,17.08
2023-02-04T14:01:31.606Z,23.20
2023-02-04T14:03:58.137Z,22.70
2023-02-04T14:06:33.070Z,22.70
2023-02-04T14:09:00.751Z,16.83
2023-02-04T14:11:31.272Z,19.13
2023-02-04T14:13:57.783Z,17.33
2023-02-04T14:16:24.340Z,27.67
2023-02-04T14:18:50.793Z,11.45
2023-02-04T14:21:17.520Z,23.77
2023-02-04T14:23:43.995Z,24.70
2023-02-04T14:26:10.604Z,19.48
2023-02-04T14:28:37.011Z,20.02
2023-02-04T14:31:03.523Z,21.73
2023-02-04T14:33:30.266Z,15.18
2023-02-04T14:35:57.011Z,27.67
2023-02-04T14:38:23.500Z,16.63
2023-02-04T14:40:50.045Z,18.60
2023-02-04T14:43:16.664Z,11.05
2023-02-04T14:45:43.090Z,15.20
2023-02-04T14:48:09.659Z,14.25
2023-02-04T14:50:36.205Z,16.27
2023-02-04T14:53:03.124Z,20.50
2023-02-04T14:55:29.552Z,24.65
2023-02-04T14:57:56.145Z,23.35
2023-02-04T15:00:22.642Z,16.17
2023-02-04T15:02:49.077Z,14.52
2023-02-04T15:05:15.591Z,13.75
2023-02-04T15:07:42.111Z,15.80
2023-02-04T15:10:09.935Z,16.75
2023-02-04T15:12:37.536Z,13.77
2023-02-04T15:15:05.535Z,19.42
2023-02-04T15:17:32.008Z,19.30
2023-02-04T15:19:58.629Z,18.92
2023-02-04T15:22:25.058Z,18.92
2023-02-04T15:24:51.605Z,21.17
2023-02-04T15:27:18.011Z,20.70
2023-02-04T15:29:44.471Z,18.10
2023-02-04T15:32:10.873Z,22.73
2023-02-04T15:34:38.150Z,13.60
2023-02-04T15:37:04.900Z,20.42
2023-02-04T15:39:31.573Z,14.32
2023-02-04T15:41:58.000Z,20.20
2023-02-04T15:44:26.543Z,16.58
2023-02-04T15:46:54.160Z,10.48
2023-02-04T15:49:21.140Z,11.60
2023-02-04T15:51:47.634Z,15.68
2023-02-04T15:54:14.660Z,12.68
2023-02-04T15:56:41.882Z,15.02
2023-02-04T15:59:08.867Z,12.60
2023-02-04T16:01:35.488Z,14.85
2023-02-04T16:04:02.042Z,10.57
2023-02-04T16:06:28.535Z,13.00
2023-02-04T16:08:54.945Z,8.98
2023-02-04T16:11:21.518Z,21.92
2023-02-04T16:13:47.888Z,15.18
2023-02-04T16:16:14.374Z,20.27
2023-02-04T16:18:41.555Z,16.98
2023-02-04T16:21:07.975Z,19.30
2023-02-04T16:23:34.473Z,22.27
2023-02-04T16:26:00.866Z,27.15
2023-02-04T16:28:27.218Z,38.80
2023-02-04T16:30:53.864Z,47.20
2023-02-04T16:33:20.318Z,57.33
2023-02-04T16:36:01.949Z,52.08
2023-02-04T16:38:29.506Z,31.48
2023-02-04T16:40:56.601Z,31.77
2023-02-04T16:43:23.846Z,34.85
2023-02-04T16:45:50.801Z,20.80
2023-02-04T16:48:17.684Z,21.27
2023-02-04T16:50:44.164Z,17.38
2023-02-04T16:53:15.005Z,63.42
2023-02-04T16:55:45.891Z,62.72
2023-02-04T16:58:15.003Z,64.57
2023-02-04T17:00:44.373Z,42.53
2023-02-04T17:03:12.568Z,44.75
2023-02-04T17:05:39.662Z,47.78
2023-02-04T17:08:07.267Z,31.17
2023-02-04T17:10:53.241Z,16.65
2023-02-04T17:13:20.570Z,25.15
2023-02-04T17:15:47.203Z,25.60
2023-02-04T17:18:13.584Z,24.77
2023-02-04T17:20:40.938Z,31.65
2023-02-04T17:23:07.599Z,27.48
2023-02-04T17:25:34.571Z,24.92
2023-02-04T17:28:01.373Z,34.33
2023-02-04T17:30:28.569Z,22.90
2023-02-04T17:32:54.989Z,19.13
2023-02-04T17:35:21.544Z,23.30
2023-02-04T17:37:47.952Z,20.27
2023-02-04T17:40:14.664Z,20.20
2023-02-04T17:42:41.493Z,23.92
2023-02-04T17:45:10.628Z,13.68
2023-02-04T17:47:38.786Z,28.30
2023-02-04T17:50:09.766Z,22.42
2023-02-04T17:52:37.707Z,17.02
2023-02-04T17:55:15.293Z,24.60
2023-02-04T17:57:41.714Z,20.23
2023-02-04T18:00:17.010Z,18.63
2023-02-04T18:02:46.116Z,17.63
2023-02-04T18:05:19.125Z,18.20
2023-02-04T18:08:12.829Z,18.60
2023-02-04T18:10:42.789Z,18.65
2023-02-04T18:13:24.224Z,19.63
2023-02-04T18:15:56.137Z,15.00
2023-02-04T18:18:35.844Z,19.13
2023-02-04T18:21:26.979Z,17.80
2023-02-04T18:24:11.431Z,16.92
2023-02-04T18:26:44.195Z,25.38
2023-02-04T18:29:27.866Z,17.70
2023-02-04T18:32:22.266Z,24.83
2023-02-04T18:34:54.764Z,31.08
2023-02-04T18:37:33.056Z,22.45
2023-02-04T18:40:08.467Z,20.48
2023-02-04T18:42:38.594Z,30.85
2023-02-04T18:45:26.379Z,28.27
2023-02-04T18:47:58.378Z,30.90
2023-02-04T18:50:33.781Z,27.92
2023-02-04T18:53:01.607Z,21.67
2023-02-04T18:55:37.530Z,32.00
2023-02-04T18:58:32.072Z,22.08
2023-02-04T19:01:01.606Z,20.88
2023-02-04T19:03:31.084Z,26.35
2023-02-04T19:06:00.949Z,22.85
2023-02-04T19:08:45.869Z,18.63
2023-02-04T19:11:35.379Z,29.27
2023-02-04T19:14:03.086Z,26.20
2023-02-04T19:16:36.754Z,31.27
2023-02-04T19:19:29.191Z,27.80
2023-02-04T19:21:55.926Z,25.55
2023-02-04T19:24:26.642Z,22.75
2023-02-04T19:27:01.755Z,29.13
2023-02-04T19:29:34.307Z,30.60
2023-02-04T19:32:18.684Z,20.00
2023-02-04T19:34:45.095Z,22.20
2023-02-04T19:37:23.140Z,21.15
2023-02-04T19:39:50.810Z,24.70
2023-02-04T19:42:36.950Z,26.33
2023-02-04T19:45:21.902Z,25.38
2023-02-04T19:47:50.638Z,34.67
2023-02-04T19:50:27.459Z,22.75
2023-02-04T19:52:57.040Z,25.60
2023-02-04T19:55:28.107Z,28.92
2023-02-04T19:57:59.169Z,22.58
2023-02-04T20:00:35.215Z,23.77
2023-02-04T20:03:33.142Z,18.30
2023-02-04T20:06:14.090Z,20.80
2023-02-04T20:09:01.365Z,25.30
2023-02-04T20:11:41.729Z,18.10
2023-02-04T20:14:14.112Z,24.63
2023-02-04T20:16:46.644Z,32.20
2023-02-04T20:19:35.542Z,28.35
2023-02-04T20:22:17.218Z,22.35
2023-02-04T20:24:46.730Z,29.05
2023-02-04T20:27:36.112Z,27.17
2023-02-04T20:30:09.313Z,24.20
2023-02-04T20:32:47.148Z,29.13
2023-02-04T20:35:13.615Z,21.92
2023-02-04T20:37:42.272Z,28.70
2023-02-04T20:40:23.395Z,24.83
2023-02-04T20:42:59.768Z,25.92
2023-02-04T20:45:32.735Z,20.77
2023-02-04T20:48:18.052Z,27.30
2023-02-04T20:50:46.393Z,51.63
2023-02-04T20:53:20.436Z,50.65
2023-02-04T20:55:53.131Z,49.20
2023-02-04T20:58:33.109Z,57.22
2023-02-04T21:00:59.498Z,42.60
2023-02-04T21:03:30.237Z,31.67
2023-02-04T21:05:58.753Z,36.75
2023-02-04T21:08:27.928Z,26.88
2023-02-04T21:10:54.698Z,32.75
2023-02-04T21:13:21.212Z,32.15
2023-02-04T21:15:47.869Z,35.83
2023-02-04T21:18:14.436Z,35.13
2023-02-04T21:20:40.836Z,28.02
2023-02-04T21:23:07.844Z,35.75
2023-02-04T21:25:34.658Z,31.00
2023-02-04T21:28:01.365Z,28.90
2023-02-04T21:30:30.263Z,31.13
2023-02-04T21:32:57.951Z,29.10
2023-02-04T21:35:24.625Z,30.38
2023-02-04T21:37:52.009Z,36.28
2023-02-04T21:40:21.824Z,32.05
2023-02-04T21:42:49.379Z,40.17
2023-02-04T21:45:19.931Z,36.38
2023-02-04T21:47:47.625Z,32.65
2023-02-04T21:50:16.150Z,29.02
2023-02-04T21:52:42.973Z,47.08
2023-02-04T21:55:10.979Z,41.50
2023-02-04T21:57:37.973Z,35.17
2023-02-04T22:00:06.814Z,28.30
2023-02-04T22:02:33.714Z,29.42
2023-02-04T22:05:00.615Z,25.45
2023-02-04T22:07:27.214Z,31.02
2023-02-04T22:09:53.591Z,24.80
2023-02-04T22:12:20.241Z,37.22
2023-02-04T22:15:05.507Z,27.17
2023-02-04T22:17:32.521Z,29.58
2023-02-04T22:19:59.199Z,30.00
2023-02-04T22:22:25.679Z,26.08
2023-02-04T22:24:52.311Z,31.42
2023-02-04T22:27:19.025Z,28.58
2023-02-04T22:29:45.632Z,22.83
2023-02-04T22:32:12.003Z,29.55
2023-02-04T22:34:38.418Z,25.25
2023-02-04T22:37:05.029Z,29.00
2023-02-04T22:39:31.474Z,27.17
2023-02-04T22:41:58.120Z,27.95
2023-02-04T22:44:24.869Z,19.23
2023-02-04T22:46:51.576Z,22.48
2023-02-04T22:49:17.999Z,22.45
2023-02-04T22:51:44.515Z,25.77
2023-02-04T22:54:11.307Z,37.95
2023-02-04T22:56:37.850Z,31.08
2023-02-04T22:59:04.237Z,39.47
2023-02-04T23:01:30.628Z,33.90
2023-02-04T23:03:57.059Z,31.27
2023-02-04T23:06:23.770Z,26.20
2023-02-04T23:08:50.259Z,24.00
2023-02-04T23:11:18.453Z,31.00
2023-02-04T23:13:46.208Z,30.88
2023-02-04T23:16:12.731Z,30.00
2023-02-04T23:18:39.178Z,25.38
2023-02-04T23:21:06.068Z,28.20
2023-02-04T23:23:33.134Z,25.63
2023-02-04T23:26:03.257Z,36.17
2023-02-04T23:28:31.099Z,36.03
2023-02-04T23:30:58.086Z,30.92
2023-02-04T23:33:25.008Z,28.85
2023-02-04T23:35:51.782Z,28.50
2023-02-04T23:38:18.486Z,27.83
2023-02-04T23:40:44.973Z,36.40
2023-02-04T23:43:11.683Z,27.60
2023-02-04T23:45:38.239Z,29.60
2023-02-04T23:48:05.489Z,32.63
2023-02-04T23:50:31.926Z,29.45
2023-02-04T23:52:58.403Z,26.48
2023-02-04T23:55:25.121Z,21.48
2023-02-04T23:57:51.807Z,32.47
